Time;durP1;ratioP1;P1;durP2;ratioP2;P2;SDS_P1;SDS_P2;PMS_P1;PMS_P2;Temp;Humidity;BMP_temperature;BMP_pressure;BME280_temperature;BME280_humidity;BME280_pressure;Samples;Min_cycle;Max_cycle;Signal;HPM_P1;HPM_P2
2023/06/02 00:02:21;;;;;;;19.63;3.40;;;10.00;99.90;;;;;;5033150;28;20045;-28
2023/06/02 00:04:47;;;;;;;13.70;2.40;;;10.00;99.90;;;;;;5032478;28;20527;-28
2023/06/02 00:07:12;;;;;;;19.33;3.40;;;10.00;99.90;;;;;;5035347;28;20053;-28
2023/06/02 00:09:40;;;;;;;15.13;2.28;;;10.00;99.90;;;;;;5037231;28;20107;-28
2023/06/02 00:12:07;;;;;;;14.73;2.47;;;9.90;99.90;;;;;;5036885;28;20057;-28
2023/06/02 00:14:34;;;;;;;14.00;2.47;;;9.90;1.00;;;;;;5036899;28;20053;-28
2023/06/02 00:17:00;;;;;;;16.35;2.70;;;9.90;1.00;;;;;;5036785;28;20045;-28
2023/06/02 00:19:30;;;;;;;15.80;3.40;;;9.90;1.00;;;;;;5019198;28;20088;-28
2023/06/02 00:22:07;;;;;;;19.55;2.65;;;9.90;1.00;;;;;;5002795;28;20081;-28
2023/06/02 00:24:33;;;;;;;19.38;3.75;;;9.90;1.00;;;;;;5037306;28;20412;-28
2023/06/02 00:26:59;;;;;;;17.00;2.40;;;9.80;1.00;;;;;;5036620;28;20045;-28
2023/06/02 00:29:25;;;;;;;27.65;3.58;;;9.80;1.00;;;;;;5036580;28;20060;-28
2023/06/02 00:31:50;;;;;;;15.80;3.25;;;9.70;1.00;;;;;;5036602;28;20042;-28
2023/06/02 00:34:16;;;;;;;16.10;2.60;;;9.60;1.00;;;;;;5036459;28;20496;-28
2023/06/02 00:36:42;;;;;;;17.45;3.13;;;9.50;1.00;;;;;;5036485;28;20041;-28
2023/06/02 00:39:08;;;;;;;13.30;2.70;;;9.50;1.00;;;;;;5036450;28;20504;-28
2023/06/02 00:41:33;;;;;;;17.13;2.97;;;9.40;1.00;;;;;;5037112;28;20045;-28
2023/06/02 00:43:59;;;;;;;18.65;2.50;;;9.40;1.00;;;;;;5018725;28;20505;-28
2023/06/02 00:46:25;;;;;;;14.13;3.63;;;9.40;1.00;;;;;;5036547;28;20132;-28
2023/06/02 00:48:51;;;;;;;14.95;3.20;;;9.40;1.00;;;;;;5036270;28;20046;-29
2023/06/02 00:51:18;;;;;;;16.63;3.70;;;9.40;1.00;;;;;;5035775;28;20432;-28
2023/06/02 00:53:44;;;;;;;19.48;3.03;;;9.40;1.00;;;;;;5036162;28;20107;-28
2023/06/02 00:56:14;;;;;;;15.38;3.13;;;9.40;1.00;;;;;;5035558;28;20041;-29
2023/06/02 00:58:44;;;;;;;14.18;3.47;;;9.40;1.00;;;;;;5036031;28;20041;-28
2023/06/02 01:01:12;;;;;;;18.45;3.78;;;9.40;1.00;;;;;;5035961;28;20049;-28
2023/06/02 01:03:39;;;;;;;18.42;3.75;;;9.50;33.60;;;;;;5019332;28;20440;-28
2023/06/02 01:06:06;;;;;;;16.05;2.78;;;9.50;99.90;;;;;;5034997;28;20072;-29
2023/06/02 01:08:34;;;;;;;14.63;2.65;;;9.50;93.30;;;;;;5035927;28;20092;-28
2023/06/02 01:11:00;;;;;;;17.77;3.00;;;9.50;99.90;;;;;;5018440;28;20095;-29
2023/06/02 01:13:26;;;;;;;18.27;2.42;;;9.40;99.90;;;;;;5035491;28;20049;-29
2023/06/02 01:15:52;;;;;;;24.02;3.15;;;9.30;99.90;;;;;;5035756;28;20141;-28
2023/06/02 01:18:21;;;;;;;18.20;3.25;;;9.20;99.90;;;;;;5035419;28;20050;-28
2023/06/02 01:20:48;;;;;;;26.75;4.55;;;9.20;99.90;;;;;;5034599;28;20052;-28
2023/06/02 01:23:31;;;;;;;12.05;2.38;;;9.10;99.90;;;;;;5035845;28;20050;-28
2023/06/02 01:25:57;;;;;;;18.77;3.28;;;9.00;99.90;;;;;;5018766;28;20064;-28
2023/06/02 01:28:24;;;;;;;19.23;3.78;;;9.00;99.90;;;;;;5035557;28;20132;-29
2023/06/02 01:30:55;;;;;;;19.00;2.50;;;8.90;99.90;;;;;;5035500;28;20041;-28
2023/06/02 01:33:48;;;;;;;24.70;3.50;;;8.90;99.90;;;;;;5035493;28;20085;-28
2023/06/02 01:36:18;;;;;;;22.65;2.63;;;9.00;99.90;;;;;;5015532;28;20107;-28
2023/06/02 01:38:46;;;;;;;22.95;2.95;;;9.00;99.90;;;;;;5034646;28;20053;-28
2023/06/02 01:41:13;;;;;;;14.75;2.60;;;9.10;99.90;;;;;;5034188;28;20049;-28
2023/06/02 01:43:40;;;;;;;21.17;3.45;;;9.20;99.90;;;;;;5035230;28;20052;-28
2023/06/02 01:46:06;;;;;;;28.08;3.58;;;9.20;99.90;;;;;;5034216;28;20056;-28
2023/06/02 01:48:32;;;;;;;16.45;2.90;;;9.20;99.90;;;;;;5035154;28;20053;-28
2023/06/02 01:50:58;;;;;;;15.80;3.17;;;9.20;99.90;;;;;;5034150;28;20055;-28
2023/06/02 01:53:26;;;;;;;21.65;3.17;;;9.30;99.90;;;;;;5033941;28;20052;-28
2023/06/02 01:55:53;;;;;;;18.60;3.58;;;9.30;99.90;;;;;;5034055;28;20461;-28
2023/06/02 01:58:19;;;;;;;21.27;2.90;;;9.30;1.00;;;;;;5017817;28;20124;-28
2023/06/02 02:00:45;;;;;;;21.42;2.50;;;9.30;1.00;;;;;;5034786;28;20132;-28
2023/06/02 02:03:12;;;;;;;26.75;4.13;;;9.40;1.00;;;;;;5033698;28;20133;-27
2023/06/02 02:05:38;;;;;;;19.40;3.75;;;9.40;1.00;;;;;;5033870;28;20093;-28
2023/06/02 02:08:04;;;;;;;14.25;2.95;;;9.50;1.00;;;;;;5034755;28;20155;-28
2023/06/02 02:10:30;;;;;;;23.98;2.80;;;9.50;1.00;;;;;;5034771;28;20084;-28
2023/06/02 02:12:56;;;;;;;17.92;2.78;;;9.50;1.00;;;;;;5035182;28;20362;-28
2023/06/02 02:15:22;;;;;;;20.65;3.47;;;9.50;1.00;;;;;;5034681;28;20048;-27
2023/06/02 02:17:49;;;;;;;24.33;3.67;;;9.50;1.00;;;;;;5034507;28;20045;-27
2023/06/02 02:20:19;;;;;;;11.90;3.08;;;9.50;1.00;;;;;;5034359;28;20132;-28
2023/06/02 02:22:45;;;;;;;19.25;4.25;;;9.50;1.00;;;;;;5034729;28;20057;-28
2023/06/02 02:25:12;;;;;;;19.88;2.88;;;9.50;1.00;;;;;;5033338;28;20209;-28
2023/06/02 02:27:38;;;;;;;17.70;3.15;;;9.50;1.00;;;;;;4984863;28;20062;-28
2023/06/02 02:30:06;;;;;;;19.70;3.85;;;9.50;1.00;;;;;;5032645;28;20061;-29
2023/06/02 02:32:34;;;;;;;17.60;3.50;;;9.50;1.00;;;;;;5034830;28;20042;-28
2023/06/02 02:35:00;;;;;;;14.63;3.08;;;9.40;1.00;;;;;;5034241;28;20053;-28
2023/06/02 02:37:27;;;;;;;25.30;5.25;;;9.50;1.00;;;;;;5033556;28;20477;-28
2023/06/02 02:39:53;;;;;;;20.98;4.30;;;9.50;6.00;;;;;;5034168;28;20054;-28
2023/06/02 02:42:18;;;;;;;19.38;2.55;;;9.50;1.00;;;;;;5034089;28;20045;-28
2023/06/02 02:44:45;;;;;;;21.90;4.25;;;9.50;1.00;;;;;;5034063;28;20048;-28
2023/06/02 02:47:10;;;;;;;23.33;3.55;;;9.40;1.00;;;;;;5032870;28;20041;-28
2023/06/02 02:49:36;;;;;;;21.50;3.45;;;9.60;1.00;;;;;;5034008;28;20052;-28
2023/06/02 02:52:02;;;;;;;23.05;3.13;;;9.60;1.00;;;;;;5033963;28;20041;-28
2023/06/02 02:54:28;;;;;;;22.48;4.38;;;9.60;46.20;;;;;;5032952;28;20053;-28
2023/06/02 02:56:53;;;;;;;25.40;3.28;;;9.70;39.30;;;;;;5033906;28;20041;-28
2023/06/02 02:59:19;;;;;;;17.17;3.00;;;9.70;7.50;;;;;;5033886;28;20401;-28
2023/06/02 03:01:46;;;;;;;19.80;3.95;;;9.80;12.40;;;;;;5033810;28;20128;-28
2023/06/02 03:04:21;;;;;;;26.20;4.30;;;9.80;1.00;;;;;;5034381;28;20111;-29
2023/06/02 03:06:49;;;;;;;24.33;4.38;;;9.80;1.00;;;;;;5033281;28;20476;-28
2023/06/02 03:09:18;;;;;;;21.73;3.95;;;9.90;1.00;;;;;;5034306;28;20061;-28
2023/06/02 03:11:44;;;;;;;21.33;4.13;;;9.90;1.00;;;;;;5032594;28;20055;-28
2023/06/02 03:14:10;;;;;;;20.20;3.75;;;9.90;1.00;;;;;;5033725;28;20053;-27
2023/06/02 03:16:40;;;;;;;15.25;3.03;;;9.90;1.00;;;;;;5033668;28;20057;-28
2023/06/02 03:19:12;;;;;;;25.17;4.80;;;9.90;1.20;;;;;;5033566;28;20133;-28
2023/06/02 03:21:41;;;;;;;22.00;3.38;;;10.00;6.40;;;;;;5033644;28;20195;-28
2023/06/02 03:24:18;;;;;;;19.92;3.13;;;10.00;19.40;;;;;;5034248;28;20080;-29
2023/06/02 03:26:44;;;;;;;20.77;3.33;;;10.00;29.20;;;;;;5033446;28;20041;-29
2023/06/02 03:29:11;;;;;;;21.98;3.47;;;10.00;11.50;;;;;;5033534;28;20504;-28
2023/06/02 03:31:40;;;;;;;18.95;3.72;;;10.00;41.10;;;;;;5033510;28;20041;-28
2023/06/02 03:34:06;;;;;;;20.92;3.97;;;10.10;68.50;;;;;;5033532;28;20057;-28
2023/06/02 03:36:35;;;;;;;18.92;3.90;;;10.10;60.70;;;;;;5031985;28;20045;-28
2023/06/02 03:39:09;;;;;;;25.13;3.60;;;10.10;59.10;;;;;;5032276;28;20096;-28
2023/06/02 03:41:36;;;;;;;29.33;4.18;;;10.10;62.50;;;;;;5036823;28;20591;-28
2023/06/02 03:44:03;;;;;;;21.30;3.10;;;10.10;67.80;;;;;;5019916;28;20052;-28
2023/06/02 03:46:29;;;;;;;17.85;3.33;;;10.20;68.50;;;;;;5037316;28;20049;-28
2023/06/02 03:48:55;;;;;;;19.75;2.72;;;10.20;99.90;;;;;;5037337;28;20459;-28
2023/06/02 03:51:21;;;;;;;22.02;3.35;;;10.20;92.50;;;;;;5037239;28;20045;-28
2023/06/02 03:53:49;;;;;;;23.95;3.17;;;10.20;76.30;;;;;;5036277;28;20080;-28
2023/06/02 03:56:15;;;;;;;14.05;2.70;;;10.30;84.40;;;;;;5037215;28;20045;-28
2023/06/02 03:58:40;;;;;;;21.10;4.30;;;10.30;87.30;;;;;;5037935;28;20382;-28
2023/06/02 04:01:06;;;;;;;23.73;3.05;;;10.30;74.90;;;;;;5037051;28;20045;-28
2023/06/02 04:03:37;;;;;;;20.15;3.65;;;10.30;58.40;;;;;;5035792;28;20103;-29
2023/06/02 04:06:05;;;;;;;20.48;3.13;;;10.40;44.80;;;;;;5037001;28;20056;-28
2023/06/02 04:08:32;;;;;;;16.42;2.92;;;10.40;26.70;;;;;;5036902;28;20049;-28
2023/06/02 04:10:58;;;;;;;16.92;3.45;;;10.40;15.80;;;;;;5019474;28;20515;-29
2023/06/02 04:13:24;;;;;;;18.98;4.68;;;10.50;9.10;;;;;;4986390;28;20072;-27
2023/06/02 04:15:50;;;;;;;14.57;2.85;;;10.50;5.30;;;;;;5036520;28;20088;-28
2023/06/02 04:18:16;;;;;;;19.67;4.22;;;10.50;1.00;;;;;;5036899;28;20041;-28
2023/06/02 04:20:42;;;;;;;18.30;3.47;;;10.60;5.00;;;;;;5036601;28;20046;-29
2023/06/02 04:23:07;;;;;;;18.73;3.75;;;10.50;6.20;;;;;;5037355;28;20057;-28
2023/06/02 04:25:33;;;;;;;18.95;3.97;;;10.50;5.70;;;;;;5036631;28;20049;-28
2023/06/02 04:27:59;;;;;;;18.95;3.17;;;10.60;8.90;;;;;;5018966;28;20132;-29
2023/06/02 04:30:25;;;;;;;27.90;3.03;;;10.60;6.50;;;;;;5035238;28;20045;-28
2023/06/02 04:32:51;;;;;;;26.77;4.45;;;10.70;10.60;;;;;;5037387;28;20048;-28
2023/06/02 04:35:16;;;;;;;25.67;3.15;;;10.70;10.30;;;;;;5035246;28;20048;-28
2023/06/02 04:37:44;;;;;;;25.65;4.28;;;10.70;5.80;;;;;;5036416;28;20420;-28
2023/06/02 04:40:10;;;;;;;20.95;3.53;;;10.80;23.50;;;;;;5036339;28;20046;-28
2023/06/02 04:42:38;;;;;;;17.52;3.25;;;10.80;35.40;;;;;;5036259;28;20045;-28
2023/06/02 04:45:11;;;;;;;18.92;3.08;;;10.80;46.70;;;;;;5036288;28;20053;-27
2023/06/02 04:47:37;;;;;;;17.25;3.20;;;10.90;55.30;;;;;;5037099;28;20081;-28
2023/06/02 04:50:03;;;;;;;27.48;5.00;;;10.90;50.70;;;;;;5035242;28;20046;-29
2023/06/02 04:52:29;;;;;;;18.73;3.25;;;10.90;60.30;;;;;;5035462;28;20119;-29
2023/06/02 04:54:55;;;;;;;26.10;3.80;;;10.90;65.50;;;;;;5036049;28;20493;-28
2023/06/02 04:57:21;;;;;;;18.48;3.67;;;11.00;75.00;;;;;;5034628;28;20103;-28
2023/06/02 04:59:47;;;;;;;18.15;3.50;;;11.00;93.60;;;;;;5036032;28;20068;-28
2023/06/02 05:02:13;;;;;;;25.27;5.82;;;11.00;99.90;;;;;;5034485;28;20489;-28
2023/06/02 05:04:39;;;;;;;27.20;3.90;;;11.10;99.90;;;;;;5035241;28;20056;-27
2023/06/02 05:07:07;;;;;;;27.90;4.00;;;11.10;97.70;;;;;;5036396;28;20518;-28
2023/06/02 05:09:32;;;;;;;29.48;3.85;;;11.10;99.90;;;;;;5036104;28;20435;-29
2023/06/02 05:11:59;;;;;;;13.43;2.67;;;11.20;99.90;;;;;;5036642;28;20120;-28
2023/06/02 05:14:25;;;;;;;21.73;4.20;;;11.20;99.90;;;;;;5035796;28;20049;-28
2023/06/02 05:16:51;;;;;;;21.83;4.35;;;11.30;99.90;;;;;;5034550;28;20049;-27
2023/06/02 05:19:16;;;;;;;31.77;4.55;;;11.30;99.90;;;;;;5034678;28;20037;-28
2023/06/02 05:21:42;;;;;;;24.02;3.95;;;11.30;99.90;;;;;;5035580;28;20049;-28
2023/06/02 05:24:08;;;;;;;35.13;4.85;;;11.40;99.90;;;;;;5035999;28;20132;-28
2023/06/02 05:26:33;;;;;;;31.13;6.05;;;11.40;99.90;;;;;;5035519;28;20484;-28
2023/06/02 05:28:59;;;;;;;26.27;4.95;;;11.50;99.90;;;;;;5035514;28;20045;-28
2023/06/02 05:31:25;;;;;;;27.40;6.03;;;11.50;99.90;;;;;;5035426;28;20073;-27
2023/06/02 05:33:51;;;;;;;15.32;3.35;;;11.60;99.90;;;;;;5035443;28;20057;-28
2023/06/02 05:36:17;;;;;;;27.42;4.18;;;11.70;99.90;;;;;;5034581;28;20107;-28
2023/06/02 05:38:43;;;;;;;20.42;4.38;;;11.70;99.90;;;;;;5035982;28;20088;-28
2023/06/02 05:41:12;;;;;;;22.73;4.88;;;11.80;99.90;;;;;;5035728;28;20037;-27
2023/06/02 05:43:37;;;;;;;26.88;5.18;;;11.90;99.90;;;;;;5035232;28;20140;-28
2023/06/02 05:46:03;;;;;;;24.70;4.63;;;12.00;99.90;;;;;;5035414;28;20136;-28
2023/06/02 05:48:29;;;;;;;26.33;4.63;;;12.10;99.90;;;;;;5035123;28;20041;-27
2023/06/02 05:50:55;;;;;;;19.48;4.65;;;12.20;99.90;;;;;;5035068;28;20088;-28
2023/06/02 05:53:20;;;;;;;23.38;4.72;;;12.40;99.90;;;;;;5034008;28;20056;-29
2023/06/02 05:55:46;;;;;;;26.08;5.30;;;12.40;99.90;;;;;;5034946;28;20045;-28
2023/06/02 05:58:12;;;;;;;23.77;4.40;;;12.60;99.90;;;;;;5033913;28;20045;-30
2023/06/02 06:00:38;;;;;;;30.10;4.45;;;12.60;99.90;;;;;;5035337;28;20042;-28
2023/06/02 06:03:04;;;;;;;19.88;4.07;;;12.80;99.90;;;;;;5034093;28;20124;-28
2023/06/02 06:05:30;;;;;;;28.75;5.78;;;13.00;99.90;;;;;;5034621;28;20433;-28
2023/06/02 06:07:56;;;;;;;28.52;5.40;;;13.10;99.90;;;;;;5035572;28;20187;-28
2023/06/02 06:10:22;;;;;;;19.75;4.05;;;13.20;77.70;;;;;;5035254;28;20128;-29
2023/06/02 06:12:48;;;;;;;33.17;5.38;;;13.40;68.20;;;;;;5034951;28;20049;-28
2023/06/02 06:15:13;;;;;;;27.38;5.28;;;13.50;47.60;;;;;;5033674;28;20037;-28
2023/06/02 06:17:49;;;;;;;16.92;4.20;;;13.80;45.00;;;;;;5035090;28;20049;-28
2023/06/02 06:20:15;;;;;;;30.88;5.25;;;13.80;1.00;;;;;;5034420;28;20050;-28
2023/06/02 06:22:42;;;;;;;28.48;4.82;;;14.00;1.00;;;;;;5034250;28;20061;-28
2023/06/02 06:25:09;;;;;;;21.60;5.60;;;14.10;1.00;;;;;;5032858;28;20052;-28
2023/06/02 06:27:35;;;;;;;27.65;4.75;;;14.10;1.00;;;;;;5034353;28;20092;-27
2023/06/02 06:30:00;;;;;;;20.77;4.55;;;14.10;1.00;;;;;;5033158;28;20085;-28
2023/06/02 06:32:26;;;;;;;23.75;4.53;;;14.10;1.00;;;;;;5033142;28;20041;-28
2023/06/02 06:34:52;;;;;;;23.38;4.10;;;14.10;1.00;;;;;;5034838;28;20477;-28
2023/06/02 06:37:17;;;;;;;29.80;4.20;;;14.10;1.00;;;;;;5034170;28;20048;-28
2023/06/02 06:39:43;;;;;;;28.40;4.90;;;14.20;1.00;;;;;;5034223;28;20041;-28
2023/06/02 06:42:09;;;;;;;24.08;3.75;;;14.30;1.00;;;;;;5034070;28;20042;-28
2023/06/02 06:44:35;;;;;;;26.63;4.68;;;14.40;1.00;;;;;;5034074;28;20386;-28
2023/06/02 06:47:00;;;;;;;28.23;3.72;;;14.50;1.00;;;;;;5034034;28;20068;-28
2023/06/02 06:49:26;;;;;;;24.77;4.32;;;14.60;1.00;;;;;;5034040;28;20175;-28
2023/06/02 06:51:52;;;;;;;24.38;4.18;;;14.80;1.00;;;;;;5034614;28;20049;-28
2023/06/02 06:54:18;;;;;;;21.83;4.47;;;15.00;1.00;;;;;;5033923;28;20111;-28
2023/06/02 06:56:45;;;;;;;22.52;4.32;;;15.30;1.00;;;;;;5033974;28;20064;-28
2023/06/02 06:59:12;;;;;;;25.10;4.25;;;15.40;99.90;;;;;;5032911;28;20050;-28
2023/06/02 07:01:38;;;;;;;32.65;5.35;;;15.50;99.90;;;;;;5033793;28;20056;-28
2023/06/02 07:04:04;;;;;;;26.50;4.22;;;15.70;99.90;;;;;;5032577;28;20095;-28
2023/06/02 07:06:30;;;;;;;23.38;3.80;;;15.70;99.90;;;;;;5032603;28;20050;-28
2023/06/02 07:08:56;;;;;;;23.55;4.45;;;15.90;99.90;;;;;;5033832;28;20049;-28
2023/06/02 07:11:22;;;;;;;16.20;3.50;;;16.30;99.90;;;;;;5033773;28;20068;-30
2023/06/02 07:13:47;;;;;;;23.55;4.93;;;16.40;1.00;;;;;;5033080;28;20380;-28
2023/06/02 07:16:13;;;;;;;15.05;3.92;;;16.60;1.00;;;;;;5033532;28;20049;-28
2023/06/02 07:18:39;;;;;;;25.50;3.58;;;17.20;1.00;;;;;;5032880;28;20041;-29
2023/06/02 07:21:05;;;;;;;14.45;4.45;;;17.30;99.90;;;;;;5033523;28;20131;-28
2023/06/02 07:23:30;;;;;;;19.90;4.68;;;17.20;99.90;;;;;;5033975;28;20092;-29
2023/06/02 07:25:56;;;;;;;15.82;3.95;;;17.00;99.90;;;;;;5032577;28;20073;-28
2023/06/02 07:28:22;;;;;;;24.52;3.58;;;17.50;99.90;;;;;;5033557;28;20049;-27
2023/06/02 07:30:48;;;;;;;16.08;2.97;;;17.90;99.90;;;;;;5033544;28;20053;-29
2023/06/02 07:33:15;;;;;;;12.80;2.33;;;18.80;99.90;;;;;;5034311;28;20081;-27
2023/06/02 07:35:41;;;;;;;15.95;3.17;;;;;;;;;;5034006;28;20056;-28
2023/06/02 07:38:07;;;;;;;12.20;2.85;;;20.50;7.10;;;;;;5033440;28;20087;-29
2023/06/02 07:40:32;;;;;;;11.65;3.10;;;20.90;99.90;;;;;;5032827;28;20049;-29
2023/06/02 07:42:58;;;;;;;16.42;3.15;;;21.00;1.00;;;;;;5033364;28;20057;-29
2023/06/02 07:45:25;;;;;;;19.98;2.92;;;20.60;1.00;;;;;;5032132;28;20077;-28
2023/06/02 07:47:51;;;;;;;17.95;3.13;;;20.30;1.00;;;;;;5033376;28;20053;-29
2023/06/02 07:50:18;;;;;;;13.02;2.50;;;20.20;1.00;;;;;;5034154;28;20048;-29
2023/06/02 07:52:45;;;;;;;16.48;3.70;;;20.80;1.00;;;;;;5033286;28;20093;-30
2023/06/02 07:55:12;;;;;;;15.25;2.72;;;21.10;1.00;;;;;;5033273;28;20080;-28
2023/06/02 07:57:38;;;;;;;16.98;3.15;;;21.40;99.90;;;;;;5033261;28;20107;-28
2023/06/02 08:00:15;;;;;;;12.00;2.85;;;21.30;95.90;;;;;;5034080;28;20049;-28
2023/06/02 08:02:48;;;;;;;15.27;2.85;;;21.00;99.90;;;;;;5033152;28;20120;-30
2023/06/02 08:05:18;;;;;;;13.57;3.33;;;21.00;1.00;;;;;;5033822;28;20045;-29
2023/06/02 08:07:45;;;;;;;11.77;2.63;;;21.00;14.30;;;;;;5034024;28;20380;-28
2023/06/02 08:10:11;;;;;;;9.48;2.38;;;21.40;1.00;;;;;;5033667;28;20056;-29
2023/06/02 08:12:37;;;;;;;11.27;2.58;;;21.50;1.00;;;;;;5031829;28;20053;-29
2023/06/02 08:15:04;;;;;;;7.15;1.85;;;21.60;99.90;;;;;;5033073;28;20132;-29
2023/06/02 08:17:30;;;;;;;8.52;2.13;;;21.90;99.90;;;;;;5033087;28;20053;-29
2023/06/02 08:19:57;;;;;;;12.95;2.45;;;21.70;99.90;;;;;;5033024;28;20053;-30
2023/06/02 08:22:25;;;;;;;14.88;2.05;;;21.80;99.90;;;;;;5032444;28;20524;-29
2023/06/02 08:24:52;;;;;;;8.68;1.83;;;21.50;99.90;;;;;;5033653;28;20054;-28
2023/06/02 08:27:20;;;;;;;11.00;1.98;;;21.60;94.20;;;;;;5034359;28;20108;-29
2023/06/02 08:29:46;;;;;;;12.80;2.28;;;21.50;76.90;;;;;;5035677;28;20099;-29
2023/06/02 08:32:12;;;;;;;11.52;1.55;;;21.70;30.80;;;;;;5037134;28;20045;-29
2023/06/02 08:34:41;;;;;;;7.55;1.55;;;21.90;1.00;;;;;;5035357;28;20048;-28
2023/06/02 08:37:16;;;;;;;7.40;1.98;;;21.80;1.00;;;;;;5035526;28;20088;-28
2023/06/02 08:39:43;;;;;;;5.43;1.30;;;21.90;1.00;;;;;;5036628;28;20068;-29
2023/06/02 08:42:10;;;;;;;6.05;1.30;;;22.00;1.00;;;;;;5036077;28;20480;-29
2023/06/02 08:44:36;;;;;;;5.00;1.33;;;22.10;1.00;;;;;;5035198;28;20447;-29
2023/06/02 08:47:03;;;;;;;5.38;1.30;;;22.10;99.90;;;;;;5036423;28;20046;-29
2023/06/02 08:49:29;;;;;;;9.57;1.60;;;22.10;99.90;;;;;;5035990;28;20518;-29
2023/06/02 08:52:05;;;;;;;5.40;1.13;;;21.80;99.90;;;;;;5036236;28;20092;-29
2023/06/02 08:54:31;;;;;;;4.95;1.33;;;22.10;99.90;;;;;;5036193;28;20053;-30
2023/06/02 08:57:00;;;;;;;8.57;1.85;;;22.30;99.90;;;;;;5036122;28;20056;-29
2023/06/02 08:59:26;;;;;;;8.73;1.83;;;22.50;99.90;;;;;;5035174;28;20068;-29
2023/06/02 09:01:52;;;;;;;6.32;1.02;;;22.30;99.90;;;;;;5034823;28;20042;-29
2023/06/02 09:04:18;;;;;;;3.78;1.23;;;22.40;99.90;;;;;;5034745;28;20041;-30
2023/06/02 09:06:44;;;;;;;3.72;1.15;;;22.60;99.90;;;;;;5036027;28;20103;-29
2023/06/02 09:09:11;;;;;;;5.97;1.13;;;22.70;99.90;;;;;;5034997;28;20088;-29
2023/06/02 09:11:37;;;;;;;5.45;1.45;;;22.80;99.90;;;;;;5036485;28;20045;-28
2023/06/02 09:14:21;;;;;;;6.57;1.20;;;22.80;99.90;;;;;;5036386;28;20053;-29
2023/06/02 09:16:47;;;;;;;8.45;2.08;;;22.90;99.90;;;;;;5036437;28;20049;-29
2023/06/02 09:19:13;;;;;;;9.00;1.13;;;23.20;99.90;;;;;;5035658;28;20114;-29
2023/06/02 09:21:38;;;;;;;4.65;0.95;;;23.40;99.90;;;;;;5035618;28;20044;-29
2023/06/02 09:24:05;;;;;;;5.88;1.00;;;23.20;99.90;;;;;;5033928;28;20054;-30
2023/06/02 09:26:31;;;;;;;4.45;0.95;;;23.30;95.50;;;;;;5035639;28;20147;-29
2023/06/02 09:29:08;;;;;;;3.67;0.88;;;23.20;70.50;;;;;;5035593;28;20100;-29
2023/06/02 09:31:46;;;;;;;7.00;1.30;;;22.90;1.90;;;;;;5036134;28;20124;-29
2023/06/02 09:34:13;;;;;;;4.03;1.20;;;23.20;24.20;;;;;;5035418;28;20053;-28
2023/06/02 09:36:39;;;;;;;4.47;1.13;;;23.00;9.10;;;;;;5035379;28;20054;-29
2023/06/02 09:39:06;;;;;;;5.78;1.15;;;22.90;1.00;;;;;;5035273;28;20056;-29
2023/06/02 09:41:32;;;;;;;5.95;1.23;;;22.60;1.00;;;;;;5035275;28;20395;-29
2023/06/02 09:43:58;;;;;;;4.07;1.23;;;22.60;1.00;;;;;;5034315;28;20050;-30
2023/06/02 09:46:24;;;;;;;4.45;1.27;;;22.40;1.00;;;;;;5035221;28;20052;-29
2023/06/02 09:49:00;;;;;;;5.93;1.63;;;22.40;1.00;;;;;;5034881;28;20045;-29
2023/06/02 09:51:26;;;;;;;6.57;1.30;;;22.60;1.00;;;;;;5035182;28;20555;-28
2023/06/02 09:53:52;;;;;;;11.00;1.83;;;22.70;18.90;;;;;;5035117;28;20049;-30
2023/06/02 09:56:21;;;;;;;4.85;1.45;;;22.90;35.70;;;;;;5034123;28;20042;-29
2023/06/02 09:58:46;;;;;;;4.90;1.25;;;23.40;31.40;;;;;;5035039;28;20064;-29
2023/06/02 10:01:14;;;;;;;2.35;0.93;;;23.40;1.00;;;;;;5034525;28;20045;-29
2023/06/02 10:03:44;;;;;;;2.80;0.88;;;23.10;1.00;;;;;;5035460;28;20056;-30
2023/06/02 10:06:28;;;;;;;3.17;0.90;;;22.80;1.00;;;;;;5035150;28;20057;-29
2023/06/02 10:09:02;;;;;;;4.55;1.02;;;22.60;1.00;;;;;;5034864;28;20053;-29
2023/06/02 10:11:37;;;;;;;2.03;0.75;;;22.50;1.00;;;;;;5034714;28;20477;-29
2023/06/02 10:14:35;;;;;;;3.65;1.02;;;22.60;1.00;;;;;;5034751;28;20041;-29
2023/06/02 10:17:19;;;;;;;6.63;0.98;;;22.90;1.00;;;;;;5025507;28;20107;-29
2023/06/02 10:19:58;;;;;;;7.68;0.70;;;23.30;1.00;;;;;;5033830;28;20061;-29
2023/06/02 10:22:52;;;;;;;3.72;1.13;;;23.40;1.00;;;;;;5034462;28;20136;-29
2023/06/02 10:25:27;;;;;;;2.45;0.70;;;23.10;1.00;;;;;;5035378;28;20132;-29
2023/06/02 10:27:53;;;;;;;2.80;0.95;;;23.40;1.00;;;;;;5034505;28;20041;-29
2023/06/02 10:30:21;;;;;;;4.35;0.80;;;23.50;1.00;;;;;;5033702;28;20049;-30
2023/06/02 10:32:49;;;;;;;2.47;1.00;;;23.60;1.00;;;;;;5033716;28;20033;-29
2023/06/02 10:35:17;;;;;;;2.22;0.70;;;23.90;1.00;;;;;;5034304;28;20049;-29
2023/06/02 10:37:43;;;;;;;3.00;0.63;;;24.20;1.00;;;;;;5033373;28;20049;-30
2023/06/02 10:40:10;;;;;;;3.28;0.73;;;24.10;1.00;;;;;;5034294;28;20045;-29
2023/06/02 10:42:37;;;;;;;3.95;0.93;;;24.10;1.00;;;;;;5034103;28;20045;-29
2023/06/02 10:45:21;;;;;;;2.47;1.00;;;24.50;1.00;;;;;;5034168;28;20056;-31
2023/06/02 10:47:47;;;;;;;3.92;0.95;;;24.30;1.00;;;;;;5034085;28;20045;-29
2023/06/02 10:50:14;;;;;;;4.72;0.82;;;23.90;1.00;;;;;;5034158;28;20128;-29
2023/06/02 10:53:03;;;;;;;3.60;0.82;;;23.40;1.00;;;;;;5033993;28;20045;-29
2023/06/02 10:55:31;;;;;;;4.93;1.08;;;23.70;1.00;;;;;;5034583;28;20049;-30
2023/06/02 10:58:07;;;;;;;4.53;0.90;;;23.80;1.00;;;;;;5033938;28;20058;-29
2023/06/02 11:00:35;;;;;;;3.60;0.80;;;23.90;1.00;;;;;;5032943;28;20049;-30
2023/06/02 11:03:25;;;;;;;2.28;0.90;;;23.90;1.00;;;;;;5032595;28;20103;-30
2023/06/02 11:06:11;;;;;;;3.53;1.42;;;24.20;1.00;;;;;;5034177;28;20453;-29
2023/06/02 11:08:37;;;;;;;7.70;1.00;;;24.20;1.00;;;;;;5034032;28;20053;-29
2023/06/02 11:11:04;;;;;;;3.92;1.50;;;24.10;1.00;;;;;;5034349;28;20037;-29
2023/06/02 11:13:29;;;;;;;9.10;1.42;;;24.00;1.00;;;;;;5033765;28;20081;-29
2023/06/02 11:15:56;;;;;;;5.25;1.33;;;24.00;1.00;;;;;;5033736;28;20049;-29
2023/06/02 11:18:22;;;;;;;7.20;1.65;;;23.70;1.00;;;;;;5033527;28;20084;-29
2023/06/02 11:20:50;;;;;;;8.57;1.60;;;23.90;1.00;;;;;;5033575;28;20081;-29
2023/06/02 11:23:17;;;;;;;5.45;1.55;;;23.80;1.00;;;;;;5015575;28;20497;-31
2023/06/02 11:25:46;;;;;;;7.30;1.77;;;23.70;1.00;;;;;;5016193;28;20378;-29
2023/06/02 11:28:24;;;;;;;4.00;1.50;;;23.00;1.00;;;;;;5034389;28;20106;-29
2023/06/02 11:31:09;;;;;;;5.10;1.63;;;23.40;1.00;;;;;;5032674;28;20045;-29
2023/06/02 11:33:37;;;;;;;5.68;1.40;;;23.70;1.00;;;;;;5033452;28;20052;-29
2023/06/02 11:36:08;;;;;;;5.45;1.30;;;23.50;10.80;;;;;;5033475;28;20045;-30
2023/06/02 11:38:35;;;;;;;3.42;1.55;;;24.10;1.00;;;;;;5032556;28;20053;-30
2023/06/02 11:41:15;;;;;;;8.07;1.48;;;24.00;8.80;;;;;;5033326;28;20053;-30
2023/06/02 11:43:47;;;;;;;6.18;1.65;;;24.10;1.00;;;;;;5032434;28;20057;-30
2023/06/02 11:46:17;;;;;;;7.47;1.47;;;24.10;1.00;;;;;;5033483;28;20067;-31
2023/06/02 11:48:44;;;;;;;6.35;1.60;;;24.50;1.00;;;;;;5033921;28;20049;-29
2023/06/02 11:51:12;;;;;;;4.00;1.30;;;24.50;1.00;;;;;;5033897;28;20128;-29
2023/06/02 11:53:44;;;;;;;5.97;1.60;;;25.20;1.00;;;;;;5033287;28;20107;-31
2023/06/02 11:56:10;;;;;;;4.97;1.60;;;25.40;1.00;;;;;;5032640;28;20485;-29
2023/06/02 11:58:43;;;;;;;6.35;1.88;;;25.60;1.00;;;;;;5033261;28;20057;-30
2023/06/02 12:01:14;;;;;;;6.50;1.77;;;25.80;1.00;;;;;;5033159;28;20043;-29
2023/06/02 12:04:04;;;;;;;6.82;2.17;;;25.30;1.00;;;;;;5037163;28;20132;-29
2023/06/02 12:06:36;;;;;;;5.15;1.83;;;24.80;23.20;;;;;;5037145;28;20187;-30
2023/06/02 12:09:13;;;;;;;6.32;2.35;;;24.70;30.00;;;;;;5037176;28;20060;-29
2023/06/02 12:11:39;;;;;;;7.05;2.10;;;24.40;1.00;;;;;;5037324;28;20077;-31
2023/06/02 12:14:07;;;;;;;5.78;1.85;;;24.20;12.30;;;;;;5036953;28;20046;-29
2023/06/02 12:16:34;;;;;;;7.18;2.13;;;23.70;16.40;;;;;;5036931;28;20057;-29
2023/06/02 12:19:16;;;;;;;6.95;2.20;;;23.80;99.90;;;;;;5037010;28;20393;-29
2023/06/02 12:21:43;;;;;;;6.93;2.05;;;24.40;98.10;;;;;;5036675;28;20045;-29
2023/06/02 12:24:09;;;;;;;5.82;2.28;;;23.30;40.20;;;;;;5037351;28;20062;-30
2023/06/02 12:26:43;;;;;;;6.00;2.17;;;23.20;86.70;;;;;;5036075;28;20536;-29
2023/06/02 12:29:10;;;;;;;5.82;2.03;;;23.10;99.90;;;;;;5037574;28;20472;-30
2023/06/02 12:31:36;;;;;;;4.28;1.88;;;23.30;99.90;;;;;;5036673;28;20132;-30
2023/06/02 12:34:02;;;;;;;9.50;2.45;;;23.90;99.90;;;;;;5036617;28;20042;-29
2023/06/02 12:36:28;;;;;;;4.90;1.85;;;24.30;99.90;;;;;;5035409;28;20053;-30
2023/06/02 12:38:54;;;;;;;5.63;2.03;;;24.40;99.90;;;;;;5037090;28;20461;-29
2023/06/02 12:41:20;;;;;;;7.35;2.15;;;24.70;99.90;;;;;;5036425;28;20093;-30
2023/06/02 12:43:45;;;;;;;6.80;1.92;;;24.00;97.80;;;;;;5035832;28;20156;-30
2023/06/02 12:46:11;;;;;;;7.85;2.10;;;23.10;99.90;;;;;;5036464;28;20053;-29
2023/06/02 12:48:38;;;;;;;5.90;1.80;;;23.10;99.90;;;;;;5036376;28;20507;-30
2023/06/02 12:51:06;;;;;;;6.22;1.80;;;23.40;99.90;;;;;;5035705;28;20087;-29
2023/06/02 12:53:32;;;;;;;7.13;2.42;;;23.30;99.90;;;;;;5018920;28;20057;-29